Time;durP1;ratioP1;P1;durP2;ratioP2;P2;SDS_P1;SDS_P2;PMS_P1;PMS_P2;Temp;Humidity;BMP_temperature;BMP_pressure;BME280_temperature;BME280_humidity;BME280_pressure;Samples;Min_cycle;Max_cycle;Signal;HPM_P1;HPM_P2
2023/04/01 00:00:22;;;;;;;;;;;10.20;88.10;;;;;;5034812;28;20425;-80
2023/04/01 00:02:47;;;;;;;;;;;10.10;88.30;;;;;;5034118;28;20397;-81
2023/04/01 00:05:13;;;;;;;;;;;10.10;88.40;;;;;;5034933;28;19917;-80
2023/04/01 00:07:39;;;;;;;;;;;10.10;88.40;;;;;;5017147;28;19921;-80
2023/04/01 00:10:08;;;;;;;;;;;10.10;88.70;;;;;;5019975;28;19916;-80
2023/04/01 00:12:34;;;;;;;;;;;10.10;89.00;;;;;;5035496;28;19913;-80
2023/04/01 00:15:00;;;;;;;;;;;10.00;89.10;;;;;;5017326;28;20367;-80
2023/04/01 00:17:25;;;;;;;;;;;10.00;89.40;;;;;;5014460;28;19913;-81
2023/04/01 00:19:51;;;;;;;;;;;10.00;89.50;;;;;;5031664;28;19913;-80
2023/04/01 00:22:16;;;;;;;;;;;10.00;89.90;;;;;;5014977;28;20020;-81
2023/04/01 00:24:42;;;;;;;;;;;10.00;89.80;;;;;;5033775;28;19924;-80
2023/04/01 00:27:08;;;;;;;;;;;10.10;89.50;;;;;;5017701;28;19913;-80
2023/04/01 00:29:34;;;;;;;;;;;10.00;89.30;;;;;;5036443;28;19917;-81
2023/04/01 00:32:00;;;;;;;;;;;10.00;89.20;;;;;;5018296;28;19917;-80
2023/04/01 00:34:26;;;;;;;;;;;10.00;89.30;;;;;;5023766;28;19928;-80
2023/04/01 00:40:06;;;;;;;;;;;10.00;89.50;;;;;;4740827;26;19952;-81
2023/04/01 00:43:20;;;;;;;;;;;;;;;;;;;;;
2023/04/01 00:46:06;;;;;;;;;;;10.00;89.40;;;;;;5017083;28;19920;-81
2023/04/01 00:52:42;;;;;;;;;;;;;;;;;;;;;
2023/04/01 00:58:23;;;;;;;;;;;10.00;90.10;;;;;;5055606;23;19924;-80
2023/04/01 01:00:57;;;;;;;;;;;10.00;89.90;;;;;;5046717;28;19924;-80
2023/04/01 01:03:23;;;;;;;;;;;10.00;90.10;;;;;;5010749;28;19913;-81
2023/04/01 01:06:16;;;;;;;;;;;;;;;;;;;;;
2023/04/01 01:09:03;;;;;;;;;;;9.90;90.10;;;;;;5038332;28;19992;-81
2023/04/01 01:11:37;;;;;;;;;;;9.90;90.20;;;;;;5009092;28;20452;-79
2023/04/01 01:14:25;;;;;;;;;;;9.80;90.40;;;;;;5004495;28;19920;-78
2023/04/01 01:16:59;;;;;;;;;;;9.80;90.40;;;;;;5047034;28;20284;-78
2023/04/01 01:19:47;;;;;;;;;;;9.80;90.50;;;;;;5032003;28;19919;-78
2023/04/01 01:22:19;;;;;;;;;;;9.90;90.50;;;;;;5041668;28;19913;-79
2023/04/01 01:25:00;;;;;;;;;;;9.90;90.40;;;;;;5028757;28;19975;-80
2023/04/01 01:27:53;;;;;;;;;;;9.90;90.60;;;;;;5013934;28;19949;-80
2023/04/01 01:31:00;;;;;;;;;;;;;;;;;;;;;
2023/04/01 01:33:47;;;;;;;;;;;9.80;90.60;;;;;;5022621;28;19920;-80
2023/04/01 01:36:48;;;;;;;;;;;9.80;90.80;;;;;;5040336;28;19965;-78
2023/04/01 01:39:27;;;;;;;;;;;9.80;90.90;;;;;;5025215;28;20284;-80
2023/04/01 01:42:29;;;;;;;;;;;9.80;90.80;;;;;;5016907;28;20316;-79
2023/04/01 01:45:17;;;;;;;;;;;9.70;90.80;;;;;;5008824;28;19941;-80
2023/04/01 01:47:52;;;;;;;;;;;9.80;91.20;;;;;;5030527;28;19917;-80
2023/04/01 01:50:56;;;;;;;;;;;;;;;;;;;;;
2023/04/01 01:53:19;;;;;;;;;;;9.70;91.00;;;;;;5037220;28;20010;-79
2023/04/01 01:55:55;;;;;;;;;;;9.80;91.00;;;;;;5026756;28;19909;-80
2023/04/01 01:58:42;;;;;;;;;;;9.80;91.10;;;;;;5025577;28;19974;-79
2023/04/01 02:01:36;;;;;;;;;;;9.70;91.10;;;;;;5040436;28;20309;-79
2023/04/01 02:04:18;;;;;;;;;;;9.70;90.90;;;;;;5023993;28;19919;-79
2023/04/01 02:07:04;;;;;;;;;;;9.70;91.00;;;;;;5034758;28;19914;-80
2023/04/01 02:09:34;;;;;;;;;;;9.80;91.20;;;;;;5029356;28;19917;-79
2023/04/01 02:12:16;;;;;;;;;;;9.80;90.90;;;;;;5041489;28;19913;-79
2023/04/01 02:14:48;;;;;;;;;;;9.80;90.60;;;;;;5020219;28;19958;-78
2023/04/01 02:17:19;;;;;;;;;;;9.70;90.90;;;;;;5018390;28;19931;-78
2023/04/01 02:19:48;;;;;;;;;;;9.70;91.00;;;;;;5008582;28;19928;-79
2023/04/01 02:22:16;;;;;;;;;;;9.60;90.80;;;;;;5019826;28;19913;-79
2023/04/01 02:24:41;;;;;;;;;;;9.70;90.90;;;;;;5008036;28;19995;-79
2023/04/01 02:27:08;;;;;;;;;;;9.70;90.90;;;;;;5004631;28;19967;-78
2023/04/01 02:29:34;;;;;;;;;;;9.70;90.90;;;;;;5032389;28;19920;-79
2023/04/01 02:32:00;;;;;;;;;;;9.80;90.30;;;;;;5032658;28;19917;-79
2023/04/01 02:34:26;;;;;;;;;;;9.70;90.30;;;;;;5004986;28;19913;-79
2023/04/01 02:36:53;;;;;;;;;;;9.70;90.60;;;;;;5010711;28;19914;-79
2023/04/01 02:39:18;;;;;;;;;;;9.60;90.80;;;;;;5023205;28;20446;-79
2023/04/01 02:41:45;;;;;;;;;;;9.70;90.50;;;;;;5013949;28;19964;-78
2023/04/01 02:44:11;;;;;;;;;;;9.60;90.50;;;;;;5028585;28;19917;-79
2023/04/01 02:46:37;;;;;;;;;;;9.70;90.60;;;;;;5023186;28;19913;-79
2023/04/01 02:49:02;;;;;;;;;;;9.60;90.60;;;;;;5005240;28;19920;-79
2023/04/01 02:51:28;;;;;;;;;;;9.60;90.60;;;;;;5025635;28;19917;-79
2023/04/01 02:53:54;;;;;;;;;;;9.60;90.60;;;;;;5028473;28;19913;-80
2023/04/01 02:56:19;;;;;;;;;;;9.60;90.80;;;;;;4997223;28;19922;-79
2023/04/01 02:58:45;;;;;;;;;;;9.60;90.70;;;;;;5025199;28;19976;-79
2023/04/01 03:01:11;;;;;;;;;;;9.60;91.00;;;;;;5030984;28;20376;-79
2023/04/01 03:03:36;;;;;;;;;;;9.60;90.80;;;;;;5018976;28;19931;-79
2023/04/01 03:06:06;;;;;;;;;;;9.70;90.80;;;;;;5035506;28;19909;-80
2023/04/01 03:08:32;;;;;;;;;;;9.70;90.80;;;;;;5011890;28;19940;-79
2023/04/01 03:10:57;;;;;;;;;;;9.60;90.80;;;;;;5037193;28;19917;-79
2023/04/01 03:13:23;;;;;;;;;;;9.70;90.50;;;;;;5010899;28;19913;-79
2023/04/01 03:15:48;;;;;;;;;;;9.60;90.60;;;;;;5024002;28;19924;-79
2023/04/01 03:18:14;;;;;;;;;;;9.60;90.80;;;;;;5044706;28;19920;-79
2023/04/01 03:20:39;;;;;;;;;;;9.60;90.90;;;;;;5011971;28;19916;-79
2023/04/01 03:23:05;;;;;;;;;;;9.60;91.00;;;;;;5023808;28;19920;-78
2023/04/01 03:25:30;;;;;;;;;;;9.60;91.20;;;;;;5036365;28;19956;-79
2023/04/01 03:27:56;;;;;;;;;;;9.60;91.00;;;;;;5042520;28;19913;-79
2023/04/01 03:30:21;;;;;;;;;;;9.60;91.30;;;;;;5028959;28;19970;-78
2023/04/01 03:32:47;;;;;;;;;;;9.70;91.40;;;;;;5031184;28;19960;-79
2023/04/01 03:35:12;;;;;;;;;;;9.70;91.50;;;;;;5031470;28;19917;-79
2023/04/01 03:37:37;;;;;;;;;;;9.60;91.50;;;;;;5016734;28;19924;-79
2023/04/01 03:40:03;;;;;;;;;;;9.60;91.50;;;;;;5026010;28;20285;-79
2023/04/01 03:42:31;;;;;;;;;;;9.60;91.80;;;;;;5033947;28;19970;-80
2023/04/01 03:44:56;;;;;;;;;;;9.70;91.80;;;;;;5028970;28;19913;-79
2023/04/01 03:47:22;;;;;;;;;;;9.60;91.70;;;;;;5013425;28;19913;-79
2023/04/01 03:49:47;;;;;;;;;;;9.60;92.00;;;;;;5018227;28;19917;-79
2023/04/01 03:52:12;;;;;;;;;;;9.60;91.70;;;;;;5025974;28;20299;-80
2023/04/01 03:54:38;;;;;;;;;;;9.70;91.80;;;;;;5037661;28;19916;-79
2023/04/01 03:57:03;;;;;;;;;;;9.60;91.70;;;;;;5010166;28;20400;-80
2023/04/01 03:59:29;;;;;;;;;;;9.60;91.80;;;;;;5059674;28;19920;-79
2023/04/01 04:01:54;;;;;;;;;;;9.50;92.00;;;;;;5033159;28;19964;-79
2023/04/01 04:04:20;;;;;;;;;;;9.60;92.30;;;;;;5040004;28;19913;-79
2023/04/01 04:06:45;;;;;;;;;;;9.60;92.10;;;;;;5036762;28;20368;-79
2023/04/01 04:09:11;;;;;;;;;;;9.60;91.80;;;;;;5037656;28;19913;-79
2023/04/01 04:11:36;;;;;;;;;;;9.60;91.90;;;;;;5029245;28;19917;-79
2023/04/01 04:14:02;;;;;;;;;;;9.60;91.90;;;;;;5034373;28;19999;-79
2023/04/01 04:16:28;;;;;;;;;;;9.50;91.90;;;;;;5018430;28;19913;-79
2023/04/01 04:18:53;;;;;;;;;;;9.50;92.10;;;;;;5029833;28;19914;-79
2023/04/01 04:21:19;;;;;;;;;;;9.60;92.30;;;;;;5030136;28;19992;-78
2023/04/01 04:23:44;;;;;;;;;;;9.60;92.10;;;;;;5042620;28;19913;-79
2023/04/01 04:26:11;;;;;;;;;;;9.50;92.10;;;;;;5044928;28;20365;-79
2023/04/01 04:28:36;;;;;;;;;;;9.50;92.20;;;;;;5041471;28;19967;-79
2023/04/01 04:31:04;;;;;;;;;;;9.50;92.10;;;;;;5031441;28;20008;-79
2023/04/01 04:33:30;;;;;;;;;;;9.50;92.10;;;;;;5015239;28;20003;-79
2023/04/01 04:35:56;;;;;;;;;;;9.60;92.20;;;;;;5004921;28;20006;-78
2023/04/01 04:38:21;;;;;;;;;;;9.50;92.30;;;;;;5020791;28;19920;-79
2023/04/01 04:40:47;;;;;;;;;;;9.50;92.20;;;;;;5027820;28;19913;-78
2023/04/01 04:43:13;;;;;;;;;;;9.50;92.40;;;;;;5043817;28;20003;-78
2023/04/01 04:45:39;;;;;;;;;;;9.60;92.40;;;;;;5024587;28;19960;-78
2023/04/01 04:48:05;;;;;;;;;;;9.60;92.30;;;;;;5032539;28;19909;-78
2023/04/01 04:50:30;;;;;;;;;;;9.70;92.10;;;;;;5035432;28;20373;-80
2023/04/01 04:52:56;;;;;;;;;;;9.60;91.80;;;;;;5026235;28;19914;-79
2023/04/01 04:55:22;;;;;;;;;;;9.60;91.90;;;;;;5024336;28;19914;-79
2023/04/01 04:57:47;;;;;;;;;;;9.60;91.90;;;;;;5035691;28;19917;-79
2023/04/01 05:00:13;;;;;;;;;;;9.60;91.70;;;;;;5016929;28;20004;-78
2023/04/01 05:02:38;;;;;;;;;;;9.60;91.80;;;;;;5042309;28;19921;-79
2023/04/01 05:05:04;;;;;;;;;;;9.60;91.80;;;;;;5039526;28;19922;-78
2023/04/01 05:07:30;;;;;;;;;;;9.60;91.70;;;;;;5031630;28;19920;-79
2023/04/01 05:09:55;;;;;;;;;;;9.60;91.60;;;;;;5038866;28;19913;-79
2023/04/01 05:12:20;;;;;;;;;;;9.60;91.70;;;;;;5015927;28;19920;-78
2023/04/01 05:14:46;;;;;;;;;;;9.60;91.70;;;;;;5022548;28;20416;-78
2023/04/01 05:17:12;;;;;;;;;;;9.60;91.70;;;;;;5027095;28;20650;-79
2023/04/01 05:19:38;;;;;;;;;;;9.60;91.70;;;;;;5019068;28;19909;-78
2023/04/01 05:22:04;;;;;;;;;;;9.60;91.70;;;;;;5036043;28;19917;-81
2023/04/01 05:24:29;;;;;;;;;;;9.60;91.80;;;;;;5012752;28;20380;-81
2023/04/01 05:26:56;;;;;;;;;;;9.60;91.90;;;;;;5014553;28;19913;-80
2023/04/01 05:29:21;;;;;;;;;;;9.60;91.60;;;;;;5035036;28;19924;-81
2023/04/01 05:31:47;;;;;;;;;;;9.60;91.80;;;;;;5024047;28;19913;-81
2023/04/01 05:34:12;;;;;;;;;;;9.70;91.80;;;;;;5025305;28;19965;-80
2023/04/01 05:36:38;;;;;;;;;;;9.70;91.80;;;;;;5027292;28;20277;-81
2023/04/01 05:39:03;;;;;;;;;;;9.70;92.00;;;;;;5027563;28;19966;-81
2023/04/01 05:41:29;;;;;;;;;;;9.70;91.90;;;;;;5008970;28;19963;-81
2023/04/01 05:43:55;;;;;;;;;;;9.80;91.70;;;;;;5030292;28;19913;-78
2023/04/01 05:46:20;;;;;;;;;;;9.80;91.60;;;;;;5020068;28;19913;-78
2023/04/01 05:48:45;;;;;;;;;;;9.80;91.50;;;;;;5032911;28;20027;-78
2023/04/01 05:51:14;;;;;;;;;;;9.80;91.60;;;;;;5027126;28;19921;-78
2023/04/01 05:53:40;;;;;;;;;;;9.70;91.80;;;;;;5042467;28;20288;-78
2023/04/01 05:56:05;;;;;;;;;;;9.80;91.80;;;;;;5025380;28;19918;-78
2023/04/01 05:58:31;;;;;;;;;;;9.80;91.60;;;;;;5035211;28;19917;-79
2023/04/01 06:01:03;;;;;;;;;;;9.80;91.60;;;;;;5025728;28;19920;-78
2023/04/01 06:03:29;;;;;;;;;;;9.80;91.80;;;;;;5021546;28;19917;-78
2023/04/01 06:05:55;;;;;;;;;;;9.80;91.60;;;;;;5032652;28;19920;-81
2023/04/01 06:08:20;;;;;;;;;;;9.80;91.50;;;;;;5028580;28;20016;-81
2023/04/01 06:10:59;;;;;;;;;;;9.80;91.70;;;;;;5020559;28;19967;-80
2023/04/01 06:13:37;;;;;;;;;;;9.90;91.60;;;;;;5021373;28;19913;-80
2023/04/01 06:16:25;;;;;;;;;;;9.90;91.70;;;;;;5023641;28;19963;-80
2023/04/01 06:19:06;;;;;;;;;;;9.80;91.50;;;;;;5020952;28;22088;-80
2023/04/01 06:21:40;;;;;;;;;;;9.90;91.50;;;;;;5032434;28;19983;-80
2023/04/01 06:24:23;;;;;;;;;;;10.00;91.50;;;;;;5023594;28;19923;-81
2023/04/01 06:26:48;;;;;;;;;;;9.90;91.40;;;;;;5045255;28;19912;-80
2023/04/01 06:29:34;;;;;;;;;;;9.90;91.70;;;;;;5017582;28;19940;-81
2023/04/01 06:32:05;;;;;;;;;;;9.90;91.60;;;;;;5034456;28;19933;-81
2023/04/01 06:34:52;;;;;;;;;;;10.00;91.50;;;;;;5012586;28;19913;-81
2023/04/01 06:37:18;;;;;;;;;;;10.00;91.20;;;;;;5060509;23;19924;-80
2023/04/01 06:40:01;;;;;;;;;;;10.00;91.30;;;;;;5047926;28;19931;-81
2023/04/01 06:42:42;;;;;;;;;;;10.10;91.40;;;;;;5056897;28;20137;-81
2023/04/01 06:45:11;;;;;;;;;;;10.00;91.30;;;;;;5076218;28;20312;-80
2023/04/01 06:47:46;;;;;;;;;;;10.10;91.60;;;;;;5064873;28;21420;-80
2023/04/01 06:50:20;;;;;;;;;;;10.10;91.50;;;;;;5077946;28;19920;-81
2023/04/01 06:53:04;;;;;;;;;;;10.10;91.60;;;;;;5081901;28;19913;-80
2023/04/01 06:55:41;;;;;;;;;;;10.00;91.70;;;;;;5080156;28;20066;-80
2023/04/01 06:58:11;;;;;;;;;;;10.00;91.70;;;;;;5059395;28;19908;-80
2023/04/01 07:00:39;;;;;;;;;;;10.10;91.80;;;;;;5078475;28;19912;-80
2023/04/01 07:03:18;;;;;;;;;;;10.10;91.50;;;;;;5054258;28;19913;-79
2023/04/01 07:05:44;;;;;;;;;;;10.00;91.60;;;;;;5068789;28;19912;-82
2023/04/01 07:08:24;;;;;;;;;;;10.00;91.60;;;;;;5074059;28;19924;-80
2023/04/01 07:10:59;;;;;;;;;;;10.00;91.50;;;;;;5057259;28;19916;-80
2023/04/01 07:13:28;;;;;;;;;;;10.00;91.60;;;;;;5074935;28;19956;-81
2023/04/01 07:16:13;;;;;;;;;;;10.00;91.70;;;;;;5060784;28;19970;-81
2023/04/01 07:18:42;;;;;;;;;;;10.00;91.60;;;;;;5053528;28;20301;-82
2023/04/01 07:21:20;;;;;;;;;;;10.00;91.70;;;;;;5051288;28;19913;-81
2023/04/01 07:23:46;;;;;;;;;;;10.00;91.80;;;;;;5061432;28;20275;-81
2023/04/01 07:26:16;;;;;;;;;;;10.00;91.60;;;;;;5058755;28;19919;-81
2023/04/01 07:28:42;;;;;;;;;;;9.90;91.80;;;;;;5051110;28;20331;-81
2023/04/01 07:31:15;;;;;;;;;;;9.90;91.70;;;;;;5056154;28;19924;-81
2023/04/01 07:33:44;;;;;;;;;;;9.90;91.90;;;;;;5058460;28;19912;-82
2023/04/01 07:36:09;;;;;;;;;;;10.00;91.90;;;;;;5057091;28;19916;-82
2023/04/01 07:38:48;;;;;;;;;;;10.00;91.90;;;;;;5074648;28;20516;-81
2023/04/01 07:41:13;;;;;;;;;;;10.10;91.70;;;;;;5064343;28;19912;-82
2023/04/01 07:43:42;;;;;;;;;;;10.10;91.70;;;;;;5048743;28;20442;-88
2023/04/01 07:46:30;;;;;;;;;;;10.00;91.70;;;;;;5078301;28;19913;-80
2023/04/01 07:49:00;;;;;;;;;;;10.10;91.70;;;;;;5099854;28;19922;-79
2023/04/01 07:51:34;;;;;;;;;;;10.10;91.60;;;;;;5076045;28;19934;-80
2023/04/01 07:54:09;;;;;;;;;;;10.10;91.90;;;;;;5074460;28;20423;-78
2023/04/01 07:56:49;;;;;;;;;;;10.20;92.00;;;;;;5072589;28;20000;-78
2023/04/01 07:59:17;;;;;;;;;;;10.20;92.00;;;;;;5069650;28;20297;-80
2023/04/01 08:02:01;;;;;;;;;;;10.20;91.90;;;;;;5072951;28;19912;-81
2023/04/01 08:04:42;;;;;;;;;;;10.20;91.90;;;;;;5049306;28;19981;-81
2023/04/01 08:07:14;;;;;;;;;;;10.20;91.90;;;;;;5050136;28;19916;-81
2023/04/01 08:10:02;;;;;;;;;;;10.20;91.60;;;;;;5055665;28;20393;-81
2023/04/01 08:12:28;;;;;;;;;;;10.20;91.70;;;;;;5043515;28;20358;-81
2023/04/01 08:15:06;;;;;;;;;;;10.30;91.70;;;;;;5063171;28;19916;-81
2023/04/01 08:17:38;;;;;;;;;;;10.30;91.70;;;;;;5065345;28;19918;-81
2023/04/01 08:20:03;;;;;;;;;;;10.30;91.70;;;;;;5071433;28;19916;-81
2023/04/01 08:22:41;;;;;;;;;;;10.30;91.50;;;;;;5053974;28;19913;-80
2023/04/01 08:25:13;;;;;;;;;;;10.50;91.60;;;;;;5070767;28;19912;-80
2023/04/01 08:27:45;;;;;;;;;;;10.50;91.10;;;;;;5059932;28;19948;-79
2023/04/01 08:30:38;;;;;;;;;;;10.50;90.90;;;;;;5077926;28;20006;-82
2023/04/01 08:33:23;;;;;;;;;;;10.50;91.00;;;;;;5063976;28;19916;-81
2023/04/01 08:35:55;;;;;;;;;;;10.50;91.00;;;;;;5076151;28;20054;-81
2023/04/01 08:38:28;;;;;;;;;;;10.50;91.10;;;;;;5070976;28;19924;-80
2023/04/01 08:41:23;;;;;;;;;;;10.60;91.20;;;;;;5051677;28;19912;-80
2023/04/01 08:43:48;;;;;;;;;;;10.50;91.10;;;;;;5040121;28;19920;-80
2023/04/01 08:46:17;;;;;;;;;;;10.40;91.30;;;;;;5076486;28;19913;-80
2023/04/01 08:48:56;;;;;;;;;;;10.40;91.30;;;;;;5044575;28;19928;-80
2023/04/01 08:51:40;;;;;;;;;;;10.40;91.10;;;;;;5045459;28;20377;-80
2023/04/01 08:54:06;;;;;;;;;;;10.30;91.40;;;;;;5048470;28;20008;-80
2023/04/01 08:56:31;;;;;;;;;;;10.30;91.50;;;;;;5052528;28;19948;-80
2023/04/01 08:59:00;;;;;;;;;;;10.30;91.50;;;;;;5055664;28;19920;-80
2023/04/01 09:01:25;;;;;;;;;;;10.30;91.60;;;;;;5060522;28;19960;-79
2023/04/01 09:03:57;;;;;;;;;;;10.30;91.40;;;;;;5072062;28;19920;-79
2023/04/01 09:06:22;;;;;;;;;;;10.30;91.60;;;;;;5067644;28;19916;-80
2023/04/01 09:09:07;;;;;;;;;;;10.30;91.70;;;;;;5056610;28;19912;-81
2023/04/01 09:11:32;;;;;;;;;;;10.30;91.80;;;;;;5054536;28;19927;-79
2023/04/01 09:14:16;;;;;;;;;;;10.40;91.80;;;;;;5071849;28;20333;-80
2023/04/01 09:16:49;;;;;;;;;;;10.40;91.50;;;;;;5053001;28;21278;-80
2023/04/01 09:19:15;;;;;;;;;;;10.30;91.40;;;;;;5055598;28;19921;-81
2023/04/01 09:21:46;;;;;;;;;;;10.40;91.70;;;;;;5079493;28;19999;-81
2023/04/01 09:24:12;;;;;;;;;;;10.50;91.60;;;;;;5073797;28;20351;-80
2023/04/01 09:26:37;;;;;;;;;;;10.40;91.50;;;;;;5072971;28;19940;-85
2023/04/01 09:29:06;;;;;;;;;;;10.40;91.50;;;;;;5054602;28;20341;-80
2023/04/01 09:31:43;;;;;;;;;;;10.50;91.50;;;;;;5072961;28;20000;-80
2023/04/01 09:34:15;;;;;;;;;;;10.50;91.30;;;;;;5054631;28;19970;-80
2023/04/01 09:36:44;;;;;;;;;;;10.50;91.30;;;;;;5072186;28;20011;-80
2023/04/01 09:39:25;;;;;;;;;;;10.50;91.40;;;;;;5070705;28;19912;-80
2023/04/01 09:41:50;;;;;;;;;;;10.50;91.30;;;;;;5051360;28;19950;-80
2023/04/01 09:44:25;;;;;;;;;;;10.50;91.50;;;;;;5055573;28;19916;-80
2023/04/01 09:47:07;;;;;;;;;;;10.40;91.50;;;;;;5054106;28;19921;-80
2023/04/01 09:49:42;;;;;;;;;;;10.50;91.40;;;;;;5052206;28;20365;-80
2023/04/01 09:52:32;;;;;;;;;;;10.50;91.60;;;;;;5074332;28;19913;-80
2023/04/01 09:55:26;;;;;;;;;;;10.50;91.40;;;;;;5072461;28;20382;-80
2023/04/01 09:58:07;;;;;;;;;;;10.50;91.60;;;;;;5021182;28;19914;-79
2023/04/01 10:00:48;;;;;;;;;;;10.50;91.60;;;;;;5073175;28;19924;-80
2023/04/01 10:03:30;;;;;;;;;;;10.60;91.70;;;;;;5059723;28;19909;-79
2023/04/01 10:06:03;;;;;;;;;;;10.60;91.80;;;;;;5058333;28;19940;-79
2023/04/01 10:08:41;;;;;;;;;;;10.70;91.70;;;;;;5059038;28;20004;-80
2023/04/01 10:11:15;;;;;;;;;;;10.80;91.70;;;;;;5079195;28;20015;-79
2023/04/01 10:13:53;;;;;;;;;;;10.90;91.90;;;;;;5072839;28;19919;-80
2023/04/01 10:16:24;;;;;;;;;;;11.00;91.50;;;;;;5061516;28;19909;-80
2023/04/01 10:18:56;;;;;;;;;;;11.00;91.00;;;;;;5077563;28;19969;-81
2023/04/01 10:21:21;;;;;;;;;;;11.00;91.20;;;;;;5075325;28;20453;-81
2023/04/01 10:23:53;;;;;;;;;;;11.00;91.10;;;;;;5078867;28;19965;-83
2023/04/01 10:26:34;;;;;;;;;;;11.00;91.20;;;;;;5051163;28;20003;-81
2023/04/01 10:29:00;;;;;;;;;;;11.00;91.10;;;;;;5069242;28;19913;-81
2023/04/01 10:31:45;;;;;;;;;;;11.10;91.20;;;;;;5058850;28;20374;-82
2023/04/01 10:34:29;;;;;;;;;;;11.00;90.90;;;;;;5075287;28;19942;-81
2023/04/01 10:36:57;;;;;;;;;;;11.00;91.10;;;;;;5049601;28;19917;-80
2023/04/01 10:39:35;;;;;;;;;;;11.00;91.00;;;;;;5064470;28;19924;-81
2023/04/01 10:42:13;;;;;;;;;;;10.90;91.30;;;;;;5048011;28;19917;-81
2023/04/01 10:45:14;;;;;;;;;;;10.90;91.30;;;;;;5054738;28;20377;-82
2023/04/01 10:47:58;;;;;;;;;;;10.90;91.20;;;;;;4993550;28;19928;-82
2023/04/01 10:50:29;;;;;;;;;;;11.00;91.60;;;;;;5045094;28;19917;-82
2023/04/01 10:52:58;;;;;;;;;;;11.00;91.20;;;;;;5065060;28;20300;-82
2023/04/01 10:55:36;;;;;;;;;;;11.00;91.40;;;;;;5048856;28;19982;-83
2023/04/01 10:58:07;;;;;;;;;;;11.00;91.40;;;;;;5050232;28;19923;-84
2023/04/01 11:00:52;;;;;;;;;;;11.00;91.30;;;;;;5053656;28;19916;-82
2023/04/01 11:03:46;;;;;;;;;;;11.00;91.40;;;;;;5050388;28;20019;-84
2023/04/01 11:06:11;;;;;;;;;;;11.10;91.40;;;;;;5053938;28;19919;-82
2023/04/01 11:08:56;;;;;;;;;;;11.00;91.30;;;;;;5064543;28;19995;-83
2023/04/01 11:11:25;;;;;;;;;;;11.00;91.50;;;;;;5053121;28;19975;-84
2023/04/01 11:14:03;;;;;;;;;;;11.00;91.70;;;;;;5057303;28;20049;-83
2023/04/01 11:16:31;;;;;;;;;;;11.00;91.50;;;;;;5054973;28;19978;-83
2023/04/01 11:19:12;;;;;;;;;;;11.00;91.50;;;;;;5053973;28;20374;-85
2023/04/01 11:21:56;;;;;;;;;;;11.00;91.50;;;;;;5075201;28;19938;-81
2023/04/01 11:24:41;;;;;;;;;;;11.00;91.30;;;;;;5079858;28;19900;-81
2023/04/01 11:27:12;;;;;;;;;;;10.90;91.30;;;;;;5094242;28;19931;-81
2023/04/01 11:29:46;;;;;;;;;;;10.90;91.60;;;;;;5084668;28;19917;-83
2023/04/01 11:32:27;;;;;;;;;;;10.90;91.70;;;;;;5075001;28;19912;-85
2023/04/01 11:35:15;;;;;;;;;;;10.90;92.00;;;;;;5056381;28;19916;-82
2023/04/01 11:37:50;;;;;;;;;;;10.90;92.00;;;;;;5065643;28;20213;-82
2023/04/01 11:40:34;;;;;;;;;;;10.90;92.10;;;;;;5067578;28;19920;-82
2023/04/01 11:43:02;;;;;;;;;;;10.90;92.10;;;;;;5062352;28;19915;-83
2023/04/01 11:45:51;;;;;;;;;;;11.00;91.70;;;;;;5061011;28;19920;-83
2023/04/01 11:48:29;;;;;;;;;;;10.90;91.60;;;;;;5059001;28;19916;-83
2023/04/01 11:51:11;;;;;;;;;;;10.90;91.80;;;;;;5067574;28;19904;-84
2023/04/01 11:53:43;;;;;;;;;;;10.80;91.80;;;;;;5088291;28;19913;-82
2023/04/01 11:56:17;;;;;;;;;;;10.90;91.80;;;;;;5086383;28;19927;-82
2023/04/01 11:58:43;;;;;;;;;;;11.00;91.90;;;;;;5067556;28;19916;-81
2023/04/01 12:01:38;;;;;;;;;;;11.00;91.80;;;;;;5056621;28;19913;-82
2023/04/01 12:04:19;;;;;;;;;;;11.10;91.50;;;;;;5007709;28;20015;-83
2023/04/01 12:07:09;;;;;;;;;;;11.10;91.20;;;;;;5059420;28;19916;-81
2023/04/01 12:09:53;;;;;;;;;;;11.00;91.40;;;;;;5056915;28;19924;-83
2023/04/01 12:12:34;;;;;;;;;;;11.00;91.60;;;;;;5064508;28;19923;-82
2023/04/01 12:15:20;;;;;;;;;;;11.10;91.40;;;;;;5081559;28;19937;-84
2023/04/01 12:17:54;;;;;;;;;;;11.10;91.10;;;;;;5074407;28;19919;-84
2023/04/01 12:20:38;;;;;;;;;;;11.10;91.10;;;;;;5073440;28;19924;-83
2023/04/01 12:23:22;;;;;;;;;;;11.10;91.00;;;;;;5053042;28;20634;-82
2023/04/01 12:26:09;;;;;;;;;;;11.10;91.40;;;;;;5069242;28;19913;-84
2023/04/01 12:28:38;;;;;;;;;;;11.10;91.30;;;;;;5053684;28;19920;-84
2023/04/01 12:31:23;;;;;;;;;;;11.10;91.30;;;;;;5059769;28;19955;-85
2023/04/01 12:33:52;;;;;;;;;;;11.10;91.60;;;;;;5067783;28;20456;-85
2023/04/01 12:36:36;;;;;;;;;;;11.10;91.60;;;;;;5081978;28;19963;-84
2023/04/01 12:39:20;;;;;;;;;;;11.10;91.60;;;;;;5053101;28;20019;-84
2023/04/01 12:42:04;;;;;;;;;;;11.00;91.70;;;;;;5065943;28;19966;-85
2023/04/01 12:44:51;;;;;;;;;;;11.10;91.80;;;;;;5066696;28;19920;-88
2023/04/01 12:47:35;;;;;;;;;;;11.00;91.70;;;;;;5052645;28;20061;-85
2023/04/01 12:50:26;;;;;;;;;;;11.10;91.70;;;;;;5044967;28;19924;-83
2023/04/01 12:53:22;;;;;;;;;;;11.10;91.70;;;;;;5051950;28;20373;-90
2023/04/01 12:55:52;;;;;;;;;;;11.20;91.60;;;;;;5052531;28;19920;-85
2023/04/01 12:58:18;;;;;;;;;;;11.30;91.40;;;;;;5071880;28;19924;-84
2023/04/01 13:00:46;;;;;;;;;;;11.40;91.20;;;;;;5057651;28;19912;-85
2023/04/01 13:03:14;;;;;;;;;;;11.50;91.30;;;;;;5090473;22;19913;-82
2023/04/01 13:05:58;;;;;;;;;;;11.40;90.90;;;;;;5008362;28;19928;-83
2023/04/01 13:08:46;;;;;;;;;;;11.40;90.70;;;;;;5004505;28;20453;-83
2023/04/01 13:11:18;;;;;;;;;;;11.50;90.70;;;;;;5017459;28;19922;-84
2023/04/01 13:13:53;;;;;;;;;;;11.50;90.70;;;;;;5022619;28;19978;-82
2023/04/01 13:16:25;;;;;;;;;;;11.40;90.90;;;;;;5008384;28;19958;-81
2023/04/01 13:18:53;;;;;;;;;;;11.30;90.80;;;;;;5010947;28;19914;-82
2023/04/01 13:21:26;;;;;;;;;;;11.30;91.10;;;;;;5019464;28;19917;-81
2023/04/01 13:24:07;;;;;;;;;;;11.30;91.30;;;;;;5016128;28;19913;-81
2023/04/01 13:26:52;;;;;;;;;;;11.20;91.40;;;;;;5025148;28;19914;-80
2023/04/01 13:29:23;;;;;;;;;;;11.20;91.00;;;;;;5008552;28;19921;-82
2023/04/01 13:32:17;;;;;;;;;;;11.20;91.30;;;;;;5008482;28;19914;-83
2023/04/01 13:34:55;;;;;;;;;;;11.10;91.70;;;;;;5008495;28;19992;-84
2023/04/01 13:37:27;;;;;;;;;;;11.10;91.60;;;;;;5010697;28;19956;-81
2023/04/01 13:40:02;;;;;;;;;;;11.20;91.40;;;;;;4998316;28;19917;-82
2023/04/01 13:42:27;;;;;;;;;;;11.20;91.40;;;;;;5006594;28;19917;-82
2023/04/01 13:44:56;;;;;;;;;;;11.10;91.50;;;;;;5013754;28;20268;-88
2023/04/01 13:47:40;;;;;;;;;;;11.10;91.60;;;;;;5026522;28;19975;-83
2023/04/01 13:50:18;;;;;;;;;;;11.20;91.60;;;;;;5004261;28;19932;-83
2023/04/01 13:53:02;;;;;;;;;;;11.20;91.40;;;;;;5006175;28;20287;-82
2023/04/01 13:55:35;;;;;;;;;;;11.30;91.10;;;;;;5010334;28;19914;-82
2023/04/01 13:58:00;;;;;;;;;;;11.20;91.40;;;;;;5016142;28;19921;-81
2023/04/01 14:00:26;;;;;;;;;;;11.40;91.40;;;;;;5014374;28;20326;-83
2023/04/01 14:03:10;;;;;;;;;;;11.40;91.20;;;;;;5013594;28;19913;-83
2023/04/01 14:05:44;;;;;;;;;;;11.40;90.90;;;;;;5017942;28;19940;-83
2023/04/01 14:08:10;;;;;;;;;;;11.40;91.00;;;;;;5015349;28;19913;-85
2023/04/01 14:10:35;;;;;;;;;;;11.40;90.90;;;;;;5014288;28;19918;-83
2023/04/01 14:13:05;;;;;;;;;;;11.50;91.10;;;;;;5016378;28;19984;-83
2023/04/01 14:15:45;;;;;;;;;;;11.50;91.10;;;;;;5014577;28;20272;-85
2023/04/01 14:18:20;;;;;;;;;;;11.50;91.00;;;;;;5015201;28;19913;-84
2023/04/01 14:20:51;;;;;;;;;;;11.50;90.80;;;;;;5009245;28;19961;-84
2023/04/01 14:23:31;;;;;;;;;;;11.50;90.80;;;;;;5000466;28;20059;-82
2023/04/01 14:26:15;;;;;;;;;;;11.50;91.00;;;;;;5006624;28;19975;-83
2023/04/01 14:28:55;;;;;;;;;;;11.40;90.40;;;;;;5003386;28;20407;-83
2023/04/01 14:31:20;;;;;;;;;;;11.30;90.60;;;;;;4998775;28;19926;-83
2023/04/01 14:34:05;;;;;;;;;;;11.30;90.60;;;;;;4999144;28;19925;-83
2023/04/01 14:36:31;;;;;;;;;;;11.20;90.70;;;;;;5017393;28;19917;-83
2023/04/01 14:38:56;;;;;;;;;;;11.20;90.70;;;;;;5006405;28;19918;-83
2023/04/01 14:41:31;;;;;;;;;;;11.10;90.90;;;;;;5011538;28;19913;-83
2023/04/01 14:44:10;;;;;;;;;;;11.00;91.00;;;;;;4998004;28;19921;-83
2023/04/01 14:46:55;;;;;;;;;;;11.00;91.40;;;;;;5010756;28;19962;-83
2023/04/01 14:49:23;;;;;;;;;;;11.10;91.60;;;;;;5026270;28;19956;-83
2023/04/01 14:51:51;;;;;;;;;;;11.10;91.40;;;;;;5006800;28;19918;-83
2023/04/01 14:54:29;;;;;;;;;;;11.10;91.50;;;;;;4998250;28;20393;-82
2023/04/01 14:57:09;;;;;;;;;;;11.10;91.80;;;;;;5000190;28;19920;-82
2023/04/01 14:59:38;;;;;;;;;;;11.10;91.60;;;;;;5006134;28;19917;-83
2023/04/01 15:02:07;;;;;;;;;;;11.10;91.40;;;;;;5008350;28;19914;-83
2023/04/01 15:04:32;;;;;;;;;;;11.30;91.50;;;;;;5005741;28;19964;-83
2023/04/01 15:07:06;;;;;;;;;;;11.30;91.00;;;;;;5011050;28;19945;-83
2023/04/01 15:09:36;;;;;;;;;;;11.40;91.00;;;;;;5015370;28;20295;-82
2023/04/01 15:12:24;;;;;;;;;;;11.40;91.00;;;;;;5012243;28;19913;-85